sensor_id;sensor_type;location;lat;lon;timestamp;temperature;humidity
8896;DHT22;4484;48.928;10.066;2023-02-15T00:02:26;-2.50;99.90
8896;DHT22;4484;48.928;10.066;2023-02-15T00:04:53;-2.50;99.90
8896;DHT22;4484;48.928;10.066;2023-02-15T00:07:22;-2.50;99.90
8896;DHT22;4484;48.928;10.066;2023-02-15T00:09:49;-2.50;99.90
8896;DHT22;4484;48.928;10.066;2023-02-15T00:12:16;-2.50;99.90
8896;DHT22;4484;48.928;10.066;2023-02-15T00:14:43;-2.60;99.90
8896;DHT22;4484;48.928;10.066;2023-02-15T00:17:12;-2.60;99.90
8896;DHT22;4484;48.928;10.066;2023-02-15T00:19:41;-2.60;99.90
8896;DHT22;4484;48.928;10.066;2023-02-15T00:22:10;-2.70;99.90
8896;DHT22;4484;48.928;10.066;2023-02-15T00:24:36;-2.70;99.90
8896;DHT22;4484;48.928;10.066;2023-02-15T00:27:03;-2.70;99.90
8896;DHT22;4484;48.928;10.066;2023-02-15T00:29:30;-2.70;99.90
8896;DHT22;4484;48.928;10.066;2023-02-15T00:31:57;-2.80;99.90
8896;DHT22;4484;48.928;10.066;2023-02-15T00:34:26;-2.80;99.90
8896;DHT22;4484;48.928;10.066;2023-02-15T00:36:55;-2.80;99.90
8896;DHT22;4484;48.928;10.066;2023-02-15T00:39:22;-2.80;99.90
8896;DHT22;4484;48.928;10.066;2023-02-15T00:41:50;-2.80;99.90
8896;DHT22;4484;48.928;10.066;2023-02-15T00:44:17;-2.80;99.90
8896;DHT22;4484;48.928;10.066;2023-02-15T00:46:44;-2.80;99.90
8896;DHT22;4484;48.928;10.066;2023-02-15T00:49:11;-2.80;99.90
8896;DHT22;4484;48.928;10.066;2023-02-15T00:51:38;-2.80;99.90
8896;DHT22;4484;48.928;10.066;2023-02-15T00:54:06;-2.80;99.90
8896;DHT22;4484;48.928;10.066;2023-02-15T00:56:33;-2.80;99.90
8896;DHT22;4484;48.928;10.066;2023-02-15T00:59:00;-2.80;99.90
8896;DHT22;4484;48.928;10.066;2023-02-15T01:01:26;-2.80;99.90
8896;DHT22;4484;48.928;10.066;2023-02-15T01:03:53;-2.90;99.90
8896;DHT22;4484;48.928;10.066;2023-02-15T01:06:20;-2.90;99.90
8896;DHT22;4484;48.928;10.066;2023-02-15T01:08:47;-2.90;99.90
8896;DHT22;4484;48.928;10.066;2023-02-15T01:11:17;-2.80;99.90
8896;DHT22;4484;48.928;10.066;2023-02-15T01:13:56;-2.90;99.90
8896;DHT22;4484;48.928;10.066;2023-02-15T01:16:25;-2.80;99.90
8896;DHT22;4484;48.928;10.066;2023-02-15T01:18:52;-2.90;99.90
8896;DHT22;4484;48.928;10.066;2023-02-15T01:21:23;-2.90;99.90
8896;DHT22;4484;48.928;10.066;2023-02-15T01:23:50;-2.90;99.90
8896;DHT22;4484;48.928;10.066;2023-02-15T01:26:16;-2.90;99.90
8896;DHT22;4484;48.928;10.066;2023-02-15T01:28:44;-2.90;99.90
8896;DHT22;4484;48.928;10.066;2023-02-15T01:31:16;-2.90;99.90
8896;DHT22;4484;48.928;10.066;2023-02-15T01:33:45;-2.90;99.90
8896;DHT22;4484;48.928;10.066;2023-02-15T01:36:12;-2.90;99.90
8896;DHT22;4484;48.928;10.066;2023-02-15T01:38:39;-2.90;99.90
8896;DHT22;4484;48.928;10.066;2023-02-15T01:41:06;-2.90;99.90
8896;DHT22;4484;48.928;10.066;2023-02-15T01:47:16;-2.90;99.90
8896;DHT22;4484;48.928;10.066;2023-02-15T01:49:45;-2.90;99.90
8896;DHT22;4484;48.928;10.066;2023-02-15T01:52:15;-2.90;99.90
8896;DHT22;4484;48.928;10.066;2023-02-15T01:54:44;-2.90;99.90
8896;DHT22;4484;48.928;10.066;2023-02-15T01:57:22;-2.90;99.90
8896;DHT22;4484;48.928;10.066;2023-02-15T01:59:54;-2.90;99.90
8896;DHT22;4484;48.928;10.066;2023-02-15T02:02:22;-3.00;99.90
8896;DHT22;4484;48.928;10.066;2023-02-15T02:04:57;-2.90;99.90
8896;DHT22;4484;48.928;10.066;2023-02-15T02:07:27;-3.00;99.90
8896;DHT22;4484;48.928;10.066;2023-02-15T02:09:55;-2.90;99.90
8896;DHT22;4484;48.928;10.066;2023-02-15T02:12:23;-3.00;99.90
8896;DHT22;4484;48.928;10.066;2023-02-15T02:14:53;-3.00;99.90
8896;DHT22;4484;48.928;10.066;2023-02-15T02:17:54;-3.00;99.90
8896;DHT22;4484;48.928;10.066;2023-02-15T02:23:39;-3.00;99.90
8896;DHT22;4484;48.928;10.066;2023-02-15T02:32:13;-2.90;99.90
8896;DHT22;4484;48.928;10.066;2023-02-15T02:35:01;-2.90;99.90
8896;DHT22;4484;48.928;10.066;2023-02-15T02:37:55;-2.80;99.90
8896;DHT22;4484;48.928;10.066;2023-02-15T02:41:08;-2.80;99.90
8896;DHT22;4484;48.928;10.066;2023-02-15T02:49:11;-2.80;99.90
8896;DHT22;4484;48.928;10.066;2023-02-15T02:51:38;-2.80;99.90
8896;DHT22;4484;48.928;10.066;2023-02-15T02:54:06;-2.80;99.90
8896;DHT22;4484;48.928;10.066;2023-02-15T02:56:40;-2.80;99.90
8896;DHT22;4484;48.928;10.066;2023-02-15T02:59:27;-2.90;99.90
8896;DHT22;4484;48.928;10.066;2023-02-15T03:02:29;-2.90;99.90
8896;DHT22;4484;48.928;10.066;2023-02-15T03:05:03;-2.90;99.90
8896;DHT22;4484;48.928;10.066;2023-02-15T03:07:31;-2.80;99.90
8896;DHT22;4484;48.928;10.066;2023-02-15T03:10:02;-2.80;99.90
8896;DHT22;4484;48.928;10.066;2023-02-15T03:12:32;-2.90;99.90
8896;DHT22;4484;48.928;10.066;2023-02-15T03:15:08;-2.90;99.90
8896;DHT22;4484;48.928;10.066;2023-02-15T03:17:41;-2.80;99.90
8896;DHT22;4484;48.928;10.066;2023-02-15T03:20:22;-2.90;99.90
8896;DHT22;4484;48.928;10.066;2023-02-15T03:22:56;-2.90;99.90
8896;DHT22;4484;48.928;10.066;2023-02-15T03:25:32;-2.90;99.90
8896;DHT22;4484;48.928;10.066;2023-02-15T03:28:03;-2.90;99.90
8896;DHT22;4484;48.928;10.066;2023-02-15T03:30:32;-2.90;99.90
8896;DHT22;4484;48.928;10.066;2023-02-15T03:33:02;-2.90;99.90
8896;DHT22;4484;48.928;10.066;2023-02-15T03:35:39;-2.90;99.90
8896;DHT22;4484;48.928;10.066;2023-02-15T03:38:11;-2.90;99.90
8896;DHT22;4484;48.928;10.066;2023-02-15T03:40:42;-2.90;99.90
8896;DHT22;4484;48.928;10.066;2023-02-15T03:49:02;-3.00;99.90
8896;DHT22;4484;48.928;10.066;2023-02-15T03:51:34;-3.00;99.90
8896;DHT22;4484;48.928;10.066;2023-02-15T03:56:30;-3.00;99.90
8896;DHT22;4484;48.928;10.066;2023-02-15T03:58:58;-3.00;99.90
8896;DHT22;4484;48.928;10.066;2023-02-15T04:01:46;-3.00;99.90
8896;DHT22;4484;48.928;10.066;2023-02-15T04:04:37;-3.00;99.90
8896;DHT22;4484;48.928;10.066;2023-02-15T04:07:06;-3.00;99.90
8896;DHT22;4484;48.928;10.066;2023-02-15T04:09:33;-3.00;99.90
8896;DHT22;4484;48.928;10.066;2023-02-15T04:12:20;-3.00;99.90
8896;DHT22;4484;48.928;10.066;2023-02-15T04:14:46;-3.00;99.90
8896;DHT22;4484;48.928;10.066;2023-02-15T04:17:32;-3.00;99.90
8896;DHT22;4484;48.928;10.066;2023-02-15T04:19:59;-3.10;99.90
8896;DHT22;4484;48.928;10.066;2023-02-15T04:22:44;-3.10;99.90
8896;DHT22;4484;48.928;10.066;2023-02-15T04:25:30;-3.10;99.90
8896;DHT22;4484;48.928;10.066;2023-02-15T04:27:57;-3.10;99.90
8896;DHT22;4484;48.928;10.066;2023-02-15T04:30:25;-3.10;99.90
8896;DHT22;4484;48.928;10.066;2023-02-15T04:32:53;-3.20;99.90
8896;DHT22;4484;48.928;10.066;2023-02-15T04:35:20;-3.20;99.90
8896;DHT22;4484;48.928;10.066;2023-02-15T04:37:48;-3.20;99.90
8896;DHT22;4484;48.928;10.066;2023-02-15T04:40:16;-3.20;99.90
8896;DHT22;4484;48.928;10.066;2023-02-15T04:42:48;-3.20;99.90
8896;DHT22;4484;48.928;10.066;2023-02-15T04:45:15;-3.20;99.90
8896;DHT22;4484;48.928;10.066;2023-02-15T04:47:43;-3.20;99.90
8896;DHT22;4484;48.928;10.066;2023-02-15T04:50:10;-3.20;99.90
8896;DHT22;4484;48.928;10.066;2023-02-15T04:52:37;-3.30;99.90
8896;DHT22;4484;48.928;10.066;2023-02-15T04:55:05;-3.20;99.90
8896;DHT22;4484;48.928;10.066;2023-02-15T04:57:32;-3.30;99.90
8896;DHT22;4484;48.928;10.066;2023-02-15T04:59:59;-3.20;99.90
8896;DHT22;4484;48.928;10.066;2023-02-15T05:02:25;-3.30;99.90
8896;DHT22;4484;48.928;10.066;2023-02-15T05:04:52;-3.30;99.90
8896;DHT22;4484;48.928;10.066;2023-02-15T05:07:19;-3.30;99.90
8896;DHT22;4484;48.928;10.066;2023-02-15T05:09:47;-3.30;99.90
8896;DHT22;4484;48.928;10.066;2023-02-15T05:12:14;-3.30;99.90
8896;DHT22;4484;48.928;10.066;2023-02-15T05:14:41;-3.30;99.90
8896;DHT22;4484;48.928;10.066;2023-02-15T05:17:08;-3.40;99.90
8896;DHT22;4484;48.928;10.066;2023-02-15T05:19:36;-3.40;99.90
8896;DHT22;4484;48.928;10.066;2023-02-15T05:22:03;-3.40;99.90
8896;DHT22;4484;48.928;10.066;2023-02-15T05:24:30;-3.40;99.90
8896;DHT22;4484;48.928;10.066;2023-02-15T05:27:15;-3.40;99.90
8896;DHT22;4484;48.928;10.066;2023-02-15T05:30:01;-3.40;99.90
8896;DHT22;4484;48.928;10.066;2023-02-15T05:32:28;-3.40;99.90
8896;DHT22;4484;48.928;10.066;2023-02-15T05:34:55;-3.40;99.90
8896;DHT22;4484;48.928;10.066;2023-02-15T05:37:22;-3.40;99.90
8896;DHT22;4484;48.928;10.066;2023-02-15T05:39:48;-3.50;99.90
8896;DHT22;4484;48.928;10.066;2023-02-15T05:42:15;-3.50;99.90
8896;DHT22;4484;48.928;10.066;2023-02-15T05:44:42;-3.50;99.90
8896;DHT22;4484;48.928;10.066;2023-02-15T05:47:09;-3.50;99.90
8896;DHT22;4484;48.928;10.066;2023-02-15T05:49:37;-3.50;99.90
8896;DHT22;4484;48.928;10.066;2023-02-15T05:52:04;-3.50;99.90
8896;DHT22;4484;48.928;10.066;2023-02-15T05:54:31;-3.50;99.90
8896;DHT22;4484;48.928;10.066;2023-02-15T05:56:57;-3.50;99.90
8896;DHT22;4484;48.928;10.066;2023-02-15T05:59:24;-3.60;99.90
8896;DHT22;4484;48.928;10.066;2023-02-15T06:01:51;-3.60;99.90
8896;DHT22;4484;48.928;10.066;2023-02-15T06:04:18;-3.60;99.90
8896;DHT22;4484;48.928;10.066;2023-02-15T06:06:45;-3.60;99.90
8896;DHT22;4484;48.928;10.066;2023-02-15T06:09:13;-3.60;99.90
8896;DHT22;4484;48.928;10.066;2023-02-15T06:11:40;-3.60;99.90
8896;DHT22;4484;48.928;10.066;2023-02-15T06:14:06;-3.60;99.90
8896;DHT22;4484;48.928;10.066;2023-02-15T06:16:33;-3.60;99.90
8896;DHT22;4484;48.928;10.066;2023-02-15T06:19:00;-3.60;99.90
8896;DHT22;4484;48.928;10.066;2023-02-15T06:21:29;-3.60;99.90
8896;DHT22;4484;48.928;10.066;2023-02-15T06:23:56;-3.70;99.90
8896;DHT22;4484;48.928;10.066;2023-02-15T06:26:23;-3.70;99.90
8896;DHT22;4484;48.928;10.066;2023-02-15T06:28:49;-3.70;99.90
8896;DHT22;4484;48.928;10.066;2023-02-15T06:31:16;-3.70;99.90
8896;DHT22;4484;48.928;10.066;2023-02-15T06:33:43;-3.70;99.90
8896;DHT22;4484;48.928;10.066;2023-02-15T06:36:10;-3.70;99.90
8896;DHT22;4484;48.928;10.066;2023-02-15T06:38:37;-3.70;99.90
8896;DHT22;4484;48.928;10.066;2023-02-15T06:41:03;-3.70;99.90
8896;DHT22;4484;48.928;10.066;2023-02-15T06:43:30;-3.60;99.90
8896;DHT22;4484;48.928;10.066;2023-02-15T06:45:57;-3.70;99.90
8896;DHT22;4484;48.928;10.066;2023-02-15T06:48:24;-3.70;99.90
8896;DHT22;4484;48.928;10.066;2023-02-15T06:50:52;-3.60;99.90
8896;DHT22;4484;48.928;10.066;2023-02-15T06:53:19;-3.70;99.90
8896;DHT22;4484;48.928;10.066;2023-02-15T06:55:45;-3.70;99.90
8896;DHT22;4484;48.928;10.066;2023-02-15T06:58:12;-3.60;99.90
8896;DHT22;4484;48.928;10.066;2023-02-15T07:00:39;-3.60;99.90
8896;DHT22;4484;48.928;10.066;2023-02-15T07:03:06;-3.60;99.90
8896;DHT22;4484;48.928;10.066;2023-02-15T07:05:34;-3.50;99.90
8896;DHT22;4484;48.928;10.066;2023-02-15T07:08:01;-3.60;99.90
8896;DHT22;4484;48.928;10.066;2023-02-15T07:10:28;-3.50;99.90
8896;DHT22;4484;48.928;10.066;2023-02-15T07:12:55;-3.50;99.90
8896;DHT22;4484;48.928;10.066;2023-02-15T07:15:22;-3.50;99.90
8896;DHT22;4484;48.928;10.066;2023-02-15T07:17:49;-3.40;99.90
8896;DHT22;4484;48.928;10.066;2023-02-15T07:20:19;-3.40;99.90
8896;DHT22;4484;48.928;10.066;2023-02-15T07:22:47;-3.40;99.90
8896;DHT22;4484;48.928;10.066;2023-02-15T07:25:14;-3.40;99.90
8896;DHT22;4484;48.928;10.066;2023-02-15T07:27:41;-3.30;99.90
8896;DHT22;4484;48.928;10.066;2023-02-15T07:30:11;-3.30;99.90
8896;DHT22;4484;48.928;10.066;2023-02-15T07:32:38;-3.20;99.90
8896;DHT22;4484;48.928;10.066;2023-02-15T07:35:25;-3.20;99.90
8896;DHT22;4484;48.928;10.066;2023-02-15T07:37:52;-3.10;99.90
8896;DHT22;4484;48.928;10.066;2023-02-15T07:40:20;-3.10;99.90
8896;DHT22;4484;48.928;10.066;2023-02-15T07:42:50;-3.00;99.90
8896;DHT22;4484;48.928;10.066;2023-02-15T07:45:21;-3.00;99.90
8896;DHT22;4484;48.928;10.066;2023-02-15T07:47:48;-2.90;99.90
8896;DHT22;4484;48.928;10.066;2023-02-15T07:50:15;-2.80;99.90
8896;DHT22;4484;48.928;10.066;2023-02-15T07:52:41;-2.80;99.90
8896;DHT22;4484;48.928;10.066;2023-02-15T07:55:08;-2.70;99.90
8896;DHT22;4484;48.928;10.066;2023-02-15T07:57:45;-2.70;99.90
8896;DHT22;4484;48.928;10.066;2023-02-15T08:00:15;-2.60;99.90
8896;DHT22;4484;48.928;10.066;2023-02-15T08:02:51;-2.50;99.90
8896;DHT22;4484;48.928;10.066;2023-02-15T08:05:36;-2.40;99.90
8896;DHT22;4484;48.928;10.066;2023-02-15T08:08:04;-2.30;99.90
8896;DHT22;4484;48.928;10.066;2023-02-15T08:10:31;-2.00;99.90
8896;DHT22;4484;48.928;10.066;2023-02-15T08:13:21;-1.50;99.90
8896;DHT22;4484;48.928;10.066;2023-02-15T08:15:49;-0.80;99.90
8896;DHT22;4484;48.928;10.066;2023-02-15T08:18:16;-0.20;99.90
8896;DHT22;4484;48.928;10.066;2023-02-15T08:20:48;0.40;99.90
8896;DHT22;4484;48.928;10.066;2023-02-15T08:23:15;1.00;99.90
8896;DHT22;4484;48.928;10.066;2023-02-15T08:25:41;1.50;99.90
8896;DHT22;4484;48.928;10.066;2023-02-15T08:28:08;2.20;99.90
8896;DHT22;4484;48.928;10.066;2023-02-15T08:30:35;2.80;99.90
8896;DHT22;4484;48.928;10.066;2023-02-15T08:33:02;3.40;99.90
8896;DHT22;4484;48.928;10.066;2023-02-15T08:35:29;4.10;99.90
8896;DHT22;4484;48.928;10.066;2023-02-15T08:37:56;4.80;99.90
8896;DHT22;4484;48.928;10.066;2023-02-15T08:40:22;5.50;99.90
8896;DHT22;4484;48.928;10.066;2023-02-15T08:42:49;6.10;99.90
8896;DHT22;4484;48.928;10.066;2023-02-15T08:45:16;6.60;99.90
8896;DHT22;4484;48.928;10.066;2023-02-15T08:47:43;7.20;99.90
8896;DHT22;4484;48.928;10.066;2023-02-15T08:50:10;7.70;99.90
8896;DHT22;4484;48.928;10.066;2023-02-15T08:52:37;8.10;99.90
8896;DHT22;4484;48.928;10.066;2023-02-15T08:55:03;8.30;99.90
8896;DHT22;4484;48.928;10.066;2023-02-15T08:57:30;8.60;99.90
8896;DHT22;4484;48.928;10.066;2023-02-15T08:59:57;9.00;99.90
8896;DHT22;4484;48.928;10.066;2023-02-15T09:02:24;9.30;99.90
8896;DHT22;4484;48.928;10.066;2023-02-15T09:04:51;9.70;99.90
8896;DHT22;4484;48.928;10.066;2023-02-15T09:07:19;10.20;99.90
8896;DHT22;4484;48.928;10.066;2023-02-15T09:09:46;10.60;99.90
8896;DHT22;4484;48.928;10.066;2023-02-15T09:12:13;11.00;99.90
8896;DHT22;4484;48.928;10.066;2023-02-15T09:14:39;11.30;99.90
8896;DHT22;4484;48.928;10.066;2023-02-15T09:17:06;11.40;99.90
8896;DHT22;4484;48.928;10.066;2023-02-15T09:19:33;11.40;99.90
8896;DHT22;4484;48.928;10.066;2023-02-15T09:22:00;11.50;99.90
8896;DHT22;4484;48.928;10.066;2023-02-15T09:24:27;11.50;99.90
8896;DHT22;4484;48.928;10.066;2023-02-15T09:26:53;11.40;99.90
8896;DHT22;4484;48.928;10.066;2023-02-15T09:29:20;11.40;99.90
8896;DHT22;4484;48.928;10.066;2023-02-15T09:31:50;11.50;99.90
8896;DHT22;4484;48.928;10.066;2023-02-15T09:34:20;11.80;99.90
8896;DHT22;4484;48.928;10.066;2023-02-15T09:36:48;12.20;99.90
8896;DHT22;4484;48.928;10.066;2023-02-15T09:39:17;12.30;99.90
8896;DHT22;4484;48.928;10.066;2023-02-15T09:47:39;13.40;99.90
8896;DHT22;4484;48.928;10.066;2023-02-15T09:50:15;13.70;99.90
8896;DHT22;4484;48.928;10.066;2023-02-15T09:54:05;14.00;99.90
8896;DHT22;4484;48.928;10.066;2023-02-15T10:02:17;15.30;99.90
8896;DHT22;4484;48.928;10.066;2023-02-15T10:07:53;16.00;97.40
8896;DHT22;4484;48.928;10.066;2023-02-15T10:10:41;16.30;95.20
8896;DHT22;4484;48.928;10.066;2023-02-15T10:13:38;16.30;92.50
8896;DHT22;4484;48.928;10.066;2023-02-15T10:18:52;16.40;92.10
8896;DHT22;4484;48.928;10.066;2023-02-15T10:27:46;17.00;91.00
8896;DHT22;4484;48.928;10.066;2023-02-15T10:30:27;17.40;92.60
8896;DHT22;4484;48.928;10.066;2023-02-15T10:33:01;17.70;89.80
8896;DHT22;4484;48.928;10.066;2023-02-15T10:38:19;18.30;90.90
8896;DHT22;4484;48.928;10.066;2023-02-15T10:40:57;18.60;88.60
8896;DHT22;4484;48.928;10.066;2023-02-15T11:00:30;19.90;75.60
8896;DHT22;4484;48.928;10.066;2023-02-15T11:03:05;19.70;73.10
8896;DHT22;4484;48.928;10.066;2023-02-15T11:08:04;19.90;78.60
8896;DHT22;4484;48.928;10.066;2023-02-15T11:13:10;20.50;79.90
8896;DHT22;4484;48.928;10.066;2023-02-15T11:16:00;20.40;72.20
8896;DHT22;4484;48.928;10.066;2023-02-15T11:21:22;21.00;80.40
8896;DHT22;4484;48.928;10.066;2023-02-15T11:23:51;21.50;76.80
8896;DHT22;4484;48.928;10.066;2023-02-15T11:26:34;21.50;70.30
8896;DHT22;4484;48.928;10.066;2023-02-15T11:29:40;21.40;68.50
8896;DHT22;4484;48.928;10.066;2023-02-15T11:32:29;21.40;71.60
8896;DHT22;4484;48.928;10.066;2023-02-15T11:40:24;22.40;72.40
8896;DHT22;4484;48.928;10.066;2023-02-15T11:42:56;22.40;65.90
8896;DHT22;4484;48.928;10.066;2023-02-15T11:45:32;22.30;63.90
8896;DHT22;4484;48.928;10.066;2023-02-15T11:48:01;22.00;68.10
8896;DHT22;4484;48.928;10.066;2023-02-15T11:50:35;22.00;70.90
8896;DHT22;4484;48.928;10.066;2023-02-15T11:53:18;22.10;66.80
8896;DHT22;4484;48.928;10.066;2023-02-15T11:55:48;22.20;68.70
8896;DHT22;4484;48.928;10.066;2023-02-15T11:58:40;22.40;66.10
8896;DHT22;4484;48.928;10.066;2023-02-15T12:04:07;21.90;64.70
8896;DHT22;4484;48.928;10.066;2023-02-15T12:06:58;21.40;63.80
8896;DHT22;4484;48.928;10.066;2023-02-15T12:09:48;21.70;73.60
8896;DHT22;4484;48.928;10.066;2023-02-15T12:12:24;22.10;70.60
8896;DHT22;4484;48.928;10.066;2023-02-15T12:14:56;22.30;65.20
8896;DHT22;4484;48.928;10.066;2023-02-15T12:17:29;22.10;67.90
8896;DHT22;4484;48.928;10.066;2023-02-15T12:20:04;22.20;68.80
8896;DHT22;4484;48.928;10.066;2023-02-15T12:22:36;22.50;67.40
8896;DHT22;4484;48.928;10.066;2023-02-15T12:27:48;22.80;67.20
8896;DHT22;4484;48.928;10.066;2023-02-15T12:30:22;22.90;70.20
8896;DHT22;4484;48.928;10.066;2023-02-15T12:33:04;23.10;67.40
8896;DHT22;4484;48.928;10.066;2023-02-15T12:35:36;23.30;68.70
8896;DHT22;4484;48.928;10.066;2023-02-15T12:40:38;23.50;65.50
8896;DHT22;4484;48.928;10.066;2023-02-15T12:43:26;23.40;63.00
8896;DHT22;4484;48.928;10.066;2023-02-15T12:45:53;22.90;60.80
8896;DHT22;4484;48.928;10.066;2023-02-15T12:48:29;22.60;64.70
8896;DHT22;4484;48.928;10.066;2023-02-15T12:51:07;22.50;66.20
8896;DHT22;4484;48.928;10.066;2023-02-15T12:53:36;22.50;67.80
8896;DHT22;4484;48.928;10.066;2023-02-15T12:56:05;22.70;68.10
8896;DHT22;4484;48.928;10.066;2023-02-15T12:58:34;23.00;68.90
8896;DHT22;4484;48.928;10.066;2023-02-15T13:01:23;23.20;65.30
8896;DHT22;4484;48.928;10.066;2023-02-15T13:06:18;23.70;65.40
8896;DHT22;4484;48.928;10.066;2023-02-15T13:08:49;23.80;64.60
8896;DHT22;4484;48.928;10.066;2023-02-15T13:11:29;23.90;65.10
8896;DHT22;4484;48.928;10.066;2023-02-15T13:14:03;23.70;61.00
8896;DHT22;4484;48.928;10.066;2023-02-15T13:16:39;22.90;59.80
8896;DHT22;4484;48.928;10.066;2023-02-15T13:19:16;22.60;61.70
8896;DHT22;4484;48.928;10.066;2023-02-15T13:21:46;22.40;62.90
8896;DHT22;4484;48.928;10.066;2023-02-15T13:24:26;22.40;66.80
8896;DHT22;4484;48.928;10.066;2023-02-15T13:26:56;22.50;66.20
8896;DHT22;4484;48.928;10.066;2023-02-15T13:29:50;22.70;66.60
8896;DHT22;4484;48.928;10.066;2023-02-15T13:32:33;22.80;66.30
8896;DHT22;4484;48.928;10.066;2023-02-15T13:35:04;22.80;63.10
8896;DHT22;4484;48.928;10.066;2023-02-15T13:40:01;22.60;64.50
8896;DHT22;4484;48.928;10.066;2023-02-15T13:42:40;22.40;63.20
8896;DHT22;4484;48.928;10.066;2023-02-15T13:49:01;21.30;62.10
8896;DHT22;4484;48.928;10.066;2023-02-15T13:59:51;20.70;65.50
8896;DHT22;4484;48.928;10.066;2023-02-15T14:02:42;20.70;64.80
8896;DHT22;4484;48.928;10.066;2023-02-15T14:05:49;20.50;64.10
8896;DHT22;4484;48.928;10.066;2023-02-15T14:11:06;20.40;65.50
8896;DHT22;4484;48.928;10.066;2023-02-15T14:14:22;20.20;65.20
8896;DHT22;4484;48.928;10.066;2023-02-15T14:17:06;19.70;66.00
8896;DHT22;4484;48.928;10.066;2023-02-15T14:19:52;19.50;70.80
8896;DHT22;4484;48.928;10.066;2023-02-15T14:22:41;19.40;70.50
8896;DHT22;4484;48.928;10.066;2023-02-15T14:27:43;19.30;72.00
8896;DHT22;4484;48.928;10.066;2023-02-15T14:30:21;18.90;68.90
8896;DHT22;4484;48.928;10.066;2023-02-15T14:32:54;18.30;71.40
8896;DHT22;4484;48.928;10.066;2023-02-15T14:35:26;18.10;73.70
8896;DHT22;4484;48.928;10.066;2023-02-15T14:43:52;17.60;76.20
8896;DHT22;4484;48.928;10.066;2023-02-15T14:49:18;17.20;78.00
8896;DHT22;4484;48.928;10.066;2023-02-15T15:04:41;15.40;79.00
8896;DHT22;4484;48.928;10.066;2023-02-15T15:07:22;14.80;81.20
8896;DHT22;4484;48.928;10.066;2023-02-15T15:12:47;13.60;84.70
8896;DHT22;4484;48.928;10.066;2023-02-15T15:15:44;13.10;86.20
8896;DHT22;4484;48.928;10.066;2023-02-15T15:18:47;12.80;88.20
8896;DHT22;4484;48.928;10.066;2023-02-15T15:36:12;12.20;94.50
8896;DHT22;4484;48.928;10.066;2023-02-15T15:41:43;11.80;94.60
8896;DHT22;4484;48.928;10.066;2023-02-15T15:49:59;10.90;97.80
8896;DHT22;4484;48.928;10.066;2023-02-15T15:52:27;10.70;98.80
8896;DHT22;4484;48.928;10.066;2023-02-15T15:54:57;10.60;99.50
8896;DHT22;4484;48.928;10.066;2023-02-15T15:58:12;10.40;99.90
8896;DHT22;4484;48.928;10.066;2023-02-15T16:02:57;10.00;99.90
8896;DHT22;4484;48.928;10.066;2023-02-15T16:05:24;9.90;99.90
8896;DHT22;4484;48.928;10.066;2023-02-15T16:07:51;9.70;99.90
8896;DHT22;4484;48.928;10.066;2023-02-15T16:10:26;9.50;99.90
8896;DHT22;4484;48.928;10.066;2023-02-15T16:12:54;9.40;99.90
8896;DHT22;4484;48.928;10.066;2023-02-15T16:15:24;9.10;99.90
8896;DHT22;4484;48.928;10.066;2023-02-15T16:17:56;8.80;99.90
8896;DHT22;4484;48.928;10.066;2023-02-15T16:20:29;8.60;99.90
8896;DHT22;4484;48.928;10.066;2023-02-15T16:23:25;8.40;99.90
8896;DHT22;4484;48.928;10.066;2023-02-15T16:28:33;8.10;99.90
8896;DHT22;4484;48.928;10.066;2023-02-15T16:31:11;7.90;99.90
8896;DHT22;4484;48.928;10.066;2023-02-15T16:33:40;7.70;99.90
8896;DHT22;4484;48.928;10.066;2023-02-15T16:36:31;7.50;99.90
8896;DHT22;4484;48.928;10.066;2023-02-15T16:41:29;7.20;99.90
8896;DHT22;4484;48.928;10.066;2023-02-15T16:44:03;7.00;99.90
8896;DHT22;4484;48.928;10.066;2023-02-15T16:46:40;6.80;99.90
8896;DHT22;4484;48.928;10.066;2023-02-15T16:49:21;6.70;99.90
8896;DHT22;4484;48.928;10.066;2023-02-15T16:52:05;6.50;99.90
8896;DHT22;4484;48.928;10.066;2023-02-15T16:54:33;6.30;99.90
8896;DHT22;4484;48.928;10.066;2023-02-15T16:57:02;6.20;99.90
8896;DHT22;4484;48.928;10.066;2023-02-15T16:59:31;6.10;99.90
8896;DHT22;4484;48.928;10.066;2023-02-15T17:02:04;6.10;99.90
8896;DHT22;4484;48.928;10.066;2023-02-15T17:04:32;6.00;99.90
8896;DHT22;4484;48.928;10.066;2023-02-15T17:07:16;5.90;99.90
8896;DHT22;4484;48.928;10.066;2023-02-15T17:09:54;5.70;99.90
8896;DHT22;4484;48.928;10.066;2023-02-15T17:12:45;5.50;99.90
8896;DHT22;4484;48.928;10.066;2023-02-15T17:15:33;5.30;99.90
8896;DHT22;4484;48.928;10.066;2023-02-15T17:18:22;5.10;99.90
8896;DHT22;4484;48.928;10.066;2023-02-15T17:20:52;4.90;99.90
8896;DHT22;4484;48.928;10.066;2023-02-15T17:23:32;4.80;99.90
8896;DHT22;4484;48.928;10.066;2023-02-15T17:26:10;4.60;99.90
8896;DHT22;4484;48.928;10.066;2023-02-15T17:28:47;4.50;99.90
8896;DHT22;4484;48.928;10.066;2023-02-15T17:31:17;4.40;99.90
8896;DHT22;4484;48.928;10.066;2023-02-15T17:33:45;4.30;99.90
8896;DHT22;4484;48.928;10.066;2023-02-15T17:36:20;4.10;99.90
8896;DHT22;4484;48.928;10.066;2023-02-15T17:41:27;3.90;99.90
8896;DHT22;4484;48.928;10.066;2023-02-15T17:43:54;3.90;99.90
8896;DHT22;4484;48.928;10.066;2023-02-15T17:46:21;3.80;99.90
8896;DHT22;4484;48.928;10.066;2023-02-15T17:48:50;3.70;99.90
8896;DHT22;4484;48.928;10.066;2023-02-15T17:51:18;3.60;99.90
8896;DHT22;4484;48.928;10.066;2023-02-15T17:53:46;3.60;99.90
8896;DHT22;4484;48.928;10.066;2023-02-15T17:56:32;3.50;99.90
8896;DHT22;4484;48.928;10.066;2023-02-15T17:58:59;3.40;99.90
8896;DHT22;4484;48.928;10.066;2023-02-15T18:01:26;3.30;99.90
8896;DHT22;4484;48.928;10.066;2023-02-15T18:04:13;3.20;99.90
8896;DHT22;4484;48.928;10.066;2023-02-15T18:06:59;3.20;99.90
8896;DHT22;4484;48.928;10.066;2023-02-15T18:09:44;3.10;99.90
8896;DHT22;4484;48.928;10.066;2023-02-15T18:12:33;3.00;99.90
8896;DHT22;4484;48.928;10.066;2023-02-15T18:15:00;2.90;99.90
8896;DHT22;4484;48.928;10.066;2023-02-15T18:17:30;2.90;99.90
8896;DHT22;4484;48.928;10.066;2023-02-15T18:19:58;2.80;99.90
8896;DHT22;4484;48.928;10.066;2023-02-15T18:22:27;2.70;99.90
8896;DHT22;4484;48.928;10.066;2023-02-15T18:24:55;2.70;99.90
8896;DHT22;4484;48.928;10.066;2023-02-15T18:27:21;2.60;99.90
8896;DHT22;4484;48.928;10.066;2023-02-15T18:29:48;2.50;99.90
8896;DHT22;4484;48.928;10.066;2023-02-15T18:32:20;2.50;99.90
8896;DHT22;4484;48.928;10.066;2023-02-15T18:34:48;2.40;99.90
8896;DHT22;4484;48.928;10.066;2023-02-15T18:37:18;2.30;99.90
8896;DHT22;4484;48.928;10.066;2023-02-15T18:39:50;2.20;99.90
8896;DHT22;4484;48.928;10.066;2023-02-15T18:42:21;2.10;99.90
8896;DHT22;4484;48.928;10.066;2023-02-15T18:45:00;2.10;99.90
8896;DHT22;4484;48.928;10.066;2023-02-15T18:47:28;2.00;99.90
8896;DHT22;4484;48.928;10.066;2023-02-15T18:49:55;1.90;99.90
8896;DHT22;4484;48.928;10.066;2023-02-15T18:52:25;1.90;99.90
8896;DHT22;4484;48.928;10.066;2023-02-15T18:54:58;1.80;99.90
8896;DHT22;4484;48.928;10.066;2023-02-15T18:57:27;1.80;99.90
8896;DHT22;4484;48.928;10.066;2023-02-15T18:59:54;1.70;99.90
8896;DHT22;4484;48.928;10.066;2023-02-15T19:02:21;1.70;99.90
8896;DHT22;4484;48.928;10.066;2023-02-15T19:04:48;1.60;99.90
8896;DHT22;4484;48.928;10.066;2023-02-15T19:07:23;1.50;99.90
8896;DHT22;4484;48.928;10.066;2023-02-15T19:09:57;1.40;99.90
8896;DHT22;4484;48.928;10.066;2023-02-15T19:12:26;1.40;99.90
8896;DHT22;4484;48.928;10.066;2023-02-15T19:14:53;1.30;99.90
8896;DHT22;4484;48.928;10.066;2023-02-15T19:17:23;1.30;99.90